Latest Weather Observations for Strahan

IDT60801

Issued at 8:32 pm EST Tuesday 22 August 2017 (issued every 30 minutes, with the page automatically refreshed every 10 minutes)

About weather observations | Map of weather stations | Latest weather observations for TAS | Other Formats
Station Details ID: 097072 Name: STRAHAN AERODROME Lat: -42.16 Lon: 145.29 Height: 21.0 m
Data from the previous 72 hours. | See also: Recent months at Strahan
Date/Time
EST
Temp
°C
App
Temp
°C
Dew
Point
°C
Rel
Hum
%
Delta-T
°C
Wind Press
QNH
hPa
Press
MSL
hPa
Rain since
9am
mm
Dir  Spd
km/h
Gust
km/h
Spd
kts
Gust
kts
22/08:30pm 11.4 6.9 10.0 91 0.7 NNW 24 35 13 19 1012.4 1012.5 1.0
22/08:00pm 11.2 4.0 9.3 88 1.0 NNW 37 56 20 30 1012.4 1012.5 1.0
22/07:52pm 11.3 5.9 9.6 89 0.9 NNW 28 46 15 25 1012.4 1012.5 1.0
22/07:30pm 11.1 6.8 9.5 90 0.8 NNW 22 30 12 16 1012.3 1012.4 1.0
22/07:00pm 10.9 5.9 9.5 91 0.7 N 26 37 14 20 1012.5 1012.6 1.0
22/06:55pm 10.9 5.9 9.5 91 0.7 N 26 37 14 20 1012.5 1012.6 1.0
22/06:39pm 10.8 6.9 9.4 91 0.7 N 20 28 11 15 1012.4 1012.5 1.0
22/06:30pm 10.8 6.9 9.4 91 0.7 N 20 30 11 16 1012.4 1012.5 1.0
22/06:00pm 10.7 6.1 9.5 92 0.6 N 24 33 13 18 1012.4 1012.5 1.0
22/05:43pm 10.8 6.9 9.6 92 0.6 NNW 20 30 11 16 1012.4 1012.5 0.8
22/05:30pm 10.7 4.4 9.0 89 0.8 NNW 32 44 17 24 1012.5 1012.6 0.8
22/05:24pm 11.2 5.6 8.9 86 1.1 NNW 28 44 15 24 1012.6 1012.7 0.8
22/05:00pm 11.9 6.8 9.3 84 1.3 NNW 26 37 14 20 1012.2 1012.3 0.2
22/04:30pm 11.8 6.8 9.5 86 1.2 NNW 26 35 14 19 1012.2 1012.3 0.2
22/04:00pm 11.9 6.5 9.5 85 1.2 NW 28 37 15 20 1012.3 1012.4 0.2
22/03:46pm 11.3 4.9 9.2 87 1.1 NW 33 52 18 28 1012.3 1012.4 0.2
22/03:30pm 12.8 7.2 8.7 76 2.1 NNW 28 39 15 21 1012.1 1012.2 0.2
22/03:00pm 13.2 7.6 8.9 75 2.2 NNW 28 43 15 23 1012.1 1012.2 0.2
22/02:30pm 13.2 6.6 8.5 73 2.3 NNW 33 46 18 25 1012.3 1012.4 0.2
22/02:00pm 13.6 7.7 9.1 74 2.3 NNW 30 41 16 22 1012.4 1012.5 0.2
22/01:30pm 13.7 7.5 7.9 68 2.9 NW 30 43 16 23 1012.7 1012.8 0.2
22/01:00pm 13.7 7.1 7.9 68 2.9 NW 32 41 17 22 1013.0 1013.1 0.2
22/12:30pm 13.9 7.7 7.9 67 3.0 NW 30 41 16 22 1013.1 1013.2 0.2
22/12:00pm 13.2 7.7 9.3 77 2.0 NNW 28 39 15 21 1013.4 1013.5 0.2
22/11:30am 11.9 7.5 8.9 82 1.5 NNW 22 28 12 15 1013.8 1013.9 0.2
22/11:00am 11.3 6.6 9.2 87 1.0 NNW 24 33 13 18 1014.0 1014.1 0.2
22/10:32am 11.0 7.2 9.1 88 0.9 NNW 19 26 10 14 1013.9 1014.0 0.2
22/10:30am 11.0 7.2 9.1 88 0.9 N 19 26 10 14 1013.9 1014.0 0.2
22/10:16am 10.8 7.8 9.2 90 0.8 N 15 20 8 11 1013.9 1014.0 0.2
22/10:00am 10.1 6.8 8.2 88 0.9 N 15 19 8 10 1013.9 1014.0 0.2
22/09:30am 10.0 6.3 7.8 86 1.1 N 17 24 9 13 1014.0 1014.1 0.0
22/09:00am 9.9 5.6 7.0 82 1.4 N 19 24 10 13 1013.8 1013.9 0.0
22/08:30am 9.2 5.2 6.6 84 1.2 NNE 17 22 9 12 1013.5 1013.6 0.0
22/08:00am 8.1 3.9 5.7 85 1.1 NNE 17 22 9 12 1013.4 1013.5 0.0
22/07:30am 7.4 3.5 5.4 87 0.9 NNE 15 20 8 11 1013.6 1013.7 0.0
22/07:00am 7.3 4.1 5.1 86 1.0 N 11 15 6 8 1013.4 1013.5 0.0
22/06:30am 7.3 3.0 5.1 86 1.0 N 17 20 9 11 1013.3 1013.4 0.0
22/06:00am 6.9 2.9 4.9 87 0.9 NNE 15 19 8 10 1013.2 1013.3 0.0
22/05:48am 7.2 3.3 5.2 87 0.9 NNE 15 20 8 11 1013.2 1013.3 0.0
22/05:35am 7.7 3.0 5.2 84 1.1 N 19 24 10 13 1013.3 1013.4 0.0
22/05:30am 7.9 3.5 4.7 80 1.4 N 17 22 9 12 1013.4 1013.5 0.0
22/05:00am 8.0 3.5 4.2 77 1.7 N 17 24 9 13 1013.2 1013.3 0.0
22/04:30am 7.9 3.4 4.1 77 1.6 N 17 24 9 13 1013.1 1013.2 0.0
22/04:00am 7.6 3.1 4.0 78 1.6 NNE 17 24 9 13 1013.1 1013.2 0.0
22/03:30am 7.2 2.2 3.8 79 1.5 N 19 24 10 13 1013.1 1013.2 0.0
22/03:00am 6.7 1.7 3.5 80 1.4 NNE 19 26 10 14 1013.2 1013.3 0.0
22/02:30am 6.7 2.5 3.7 81 1.3 NNE 15 20 8 11 1013.4 1013.5 0.0
22/02:00am 6.1 2.2 3.6 84 1.1 N 13 20 7 11 1013.8 1013.9 0.0
22/01:30am 7.2 3.9 4.3 82 1.3 NNW 11 15 6 8 1014.2 1014.3 0.0
22/01:00am 7.2 3.1 4.3 82 1.3 N 15 20 8 11 1013.9 1014.0 0.0
22/12:30am 7.0 2.5 4.0 81 1.3 NNE 17 24 9 13 1013.9 1014.0 0.0
22/12:00am 7.4 2.9 4.0 79 1.5 NNE 17 26 9 14 1013.9 1014.0 0.0
 
Date/Time
EST
Temp
°C
App
Temp
°C
Dew
Point
°C
Rel
Hum
%
Delta-T
°C
Wind Press
QNH
hPa
Press
MSL
hPa
Rain since
9am
mm
Dir  Spd
km/h
Gust
km/h
Spd
kts
Gust
kts
21/11:30pm 7.7 3.2 4.3 79 1.5 NNE 17 22 9 12 1014.1 1014.2 0.0
21/11:00pm 7.0 3.2 4.0 81 1.3 NNE 13 19 7 10 1014.3 1014.4 0.0
21/10:30pm 6.5 2.7 3.7 82 1.2 NNE 13 15 7 8 1014.5 1014.6 0.0
21/10:00pm 6.4 2.6 3.7 83 1.1 N 13 17 7 9 1014.6 1014.7 0.0
21/09:30pm 6.4 2.6 3.9 84 1.1 N 13 15 7 8 1014.5 1014.6 0.0
21/09:00pm 7.4 4.1 4.5 82 1.3 NNE 11 15 6 8 1014.4 1014.5 0.0
21/08:30pm 7.8 4.1 4.7 81 1.4 NNE 13 15 7 8 1014.5 1014.6 0.0
21/08:00pm 7.8 4.2 5.1 83 1.2 N 13 19 7 10 1014.5 1014.6 0.0
21/07:30pm 8.6 5.6 5.9 83 1.2 NNE 11 13 6 7 1014.2 1014.3 0.0
21/07:00pm 10.2 5.6 5.8 74 2.0 NNW 19 26 10 14 1013.9 1014.0 0.0
21/06:30pm 10.0 7.0 6.2 77 1.8 NW 11 17 6 9 1013.9 1014.0 0.0
21/06:00pm 9.1 6.1 5.8 80 1.5 NW 11 15 6 8 1013.6 1013.7 0.0
21/05:30pm 9.9 5.8 6.3 78 1.7 WNW 17 22 9 12 1013.4 1013.5 0.0
21/05:00pm 11.0 6.9 6.4 73 2.2 WNW 17 22 9 12 1013.3 1013.4 0.0
21/04:30pm 11.5 7.6 7.0 74 2.1 WNW 17 24 9 13 1013.0 1013.1 0.0
21/04:00pm 12.9 8.4 4.1 55 4.0 NW 17 22 9 12 1013.0 1013.1 0.0
21/03:30pm 12.8 8.6 4.0 55 4.0 NW 15 22 8 12 1012.9 1013.0 0.0
21/03:00pm 13.3 8.9 2.5 48 4.7 NNW 15 22 8 12 1013.0 1013.1 0.0
21/02:30pm 13.4 9.3 4.6 55 4.0 NNW 15 20 8 11 1013.2 1013.3 0.0
21/02:00pm 11.7 8.0 4.7 62 3.2 N 13 19 7 10 1013.5 1013.6 0.0
21/01:30pm 11.3 6.8 4.1 61 3.2 N 17 22 9 12 1013.9 1014.0 0.0
21/01:00pm 12.0 7.6 4.7 61 3.3 NNW 17 28 9 15 1014.0 1014.1 0.0
21/12:30pm 12.3 8.3 5.0 61 3.4 N 15 22 8 12 1014.3 1014.4 0.0
21/12:00pm 10.5 5.8 5.1 69 2.5 NNE 19 26 10 14 1014.7 1014.8 0.0
21/11:30am 11.1 6.3 4.6 64 2.9 NNE 19 28 10 15 1015.0 1015.1 0.0
21/11:00am 11.2 6.1 4.2 62 3.1 NNE 20 30 11 16 1015.2 1015.3 0.0
21/10:30am 10.4 6.0 4.8 68 2.5 NNE 17 24 9 13 1015.4 1015.5 0.0
21/10:00am 9.6 5.5 4.6 71 2.2 NNE 15 20 8 11 1015.5 1015.6 0.0
21/09:30am 8.9 4.1 4.7 75 1.9 NNE 19 24 10 13 1015.8 1015.8 0.0
21/09:00am 7.4 3.7 4.2 80 1.4 NNE 13 20 7 11 1015.9 1015.9 0.2
21/08:30am 5.7 1.4 3.2 84 1.0 NNE 15 20 8 11 1015.9 1015.9 0.2
21/08:00am 4.5 0.0 2.4 86 0.8 NNE 15 22 8 12 1015.9 1015.9 0.2
21/07:30am 3.8 -0.7 2.2 89 0.6 NNE 15 19 8 10 1015.8 1015.8 0.2
21/07:00am 3.4 -1.2 1.8 89 0.6 NNE 15 19 8 10 1015.5 1015.6 0.2
21/06:30am 3.3 -1.3 1.7 89 0.6 NNE 15 19 8 10 1015.3 1015.4 0.2
21/06:00am 3.2 -1.4 1.7 90 0.6 NNE 15 19 8 10 1015.2 1015.3 0.2
21/05:30am 3.4 -1.1 1.9 90 0.6 NNE 15 19 8 10 1015.4 1015.5 0.2
21/05:00am 3.5 -0.6 2.0 90 0.6 NNE 13 17 7 9 1015.4 1015.5 0.2
21/04:30am 3.6 -0.5 2.3 91 0.5 NNE 13 19 7 10 1015.7 1015.7 0.2
21/04:00am 3.7 0.0 2.4 91 0.5 NNE 11 15 6 8 1015.9 1015.9 0.2
21/03:30am 3.8 -0.3 2.5 91 0.5 NNE 13 17 7 9 1016.1 1016.1 0.2
21/03:00am 4.2 -0.2 2.9 91 0.5 NNE 15 20 8 11 1016.4 1016.4 0.2
21/02:30am 3.9 -0.9 2.4 90 0.6 NNE 17 22 9 12 1017.0 1017.0 0.2
21/02:00am 3.4 -1.1 2.1 91 0.5 NNE 15 19 8 10 1016.9 1016.9 0.0
21/01:30am 3.4 -1.1 2.1 91 0.5 NNE 15 20 8 11 1017.1 1017.1 0.0
21/01:00am 3.7 -0.4 2.4 91 0.5 NNE 13 19 7 10 1017.1 1017.1 0.0
21/12:30am 3.7 -0.4 2.4 91 0.5 NNE 13 19 7 10 1017.2 1017.2 0.0
21/12:00am 4.0 -0.1 2.5 90 0.6 NNE 13 17 7 9 1017.3 1017.3 0.0
 
Date/Time
EST
Temp
°C
App
Temp
°C
Dew
Point
°C
Rel
Hum
%
Delta-T
°C
Wind Press
QNH
hPa
Press
MSL
hPa
Rain since
9am
mm
Dir  Spd
km/h
Gust
km/h
Spd
kts
Gust
kts
20/11:30pm 4.1 0.5 2.8 91 0.5 NNE 11 15 6 8 1017.6 1017.6 0.0
20/11:00pm 4.1 0.5 2.8 91 0.5 NNE 11 15 6 8 1017.8 1017.8 0.0
20/10:30pm 4.4 0.8 3.1 91 0.5 NNE 11 17 6 9 1018.0 1018.0 0.0
20/10:00pm 4.9 1.8 3.6 91 0.5 NNE 9 13 5 7 1018.3 1018.3 0.0
20/09:30pm 5.0 1.9 3.5 90 0.6 NNE 9 13 5 7 1018.6 1018.6 0.0
20/09:00pm 5.6 1.8 4.1 90 0.6 NNE 13 17 7 9 1018.9 1018.9 0.0
20/08:30pm 5.9 1.8 4.4 90 0.6 NNE 15 19 8 10 1019.2 1019.2 0.0
20/08:00pm 4.7 1.6 3.4 91 0.5 NNE 9 11 5 6 1019.2 1019.2 0.0
20/07:30pm 4.4 1.6 2.9 90 0.6 N 7 11 4 6 1019.1 1019.1 0.0
20/07:00pm 5.7 2.7 4.0 89 0.7 NNE 9 13 5 7 1018.8 1018.8 0.0
20/06:30pm 5.5 2.9 3.2 85 1.0 NNE 6 7 3 4 1018.6 1018.6 0.0
20/06:00pm 6.9 4.2 3.9 81 1.3 N 7 9 4 5 1018.5 1018.5 0.0
20/05:30pm 8.8 6.3 4.0 72 2.1 NW 6 7 3 4 1018.5 1018.5 0.0
20/05:00pm 9.7 6.6 3.7 66 2.6 NW 9 13 5 7 1018.8 1018.8 0.0
20/04:30pm 11.0 7.3 4.2 63 3.0 WNW 13 17 7 9 1019.0 1019.0 0.0
20/04:00pm 11.1 6.9 3.6 60 3.3 NW 15 17 8 9 1019.3 1019.3 0.0
20/03:30pm 11.5 6.9 3.8 59 3.4 WNW 17 20 9 11 1019.5 1019.5 0.0
20/03:00pm 11.9 7.8 4.6 61 3.3 WNW 15 19 8 10 1019.7 1019.7 0.0
20/02:30pm 11.8 7.4 4.5 61 3.3 W 17 22 9 12 1019.9 1019.9 0.0
20/02:00pm 11.5 6.4 4.0 60 3.3 W 20 26 11 14 1020.1 1020.1 0.0
20/01:30pm 11.3 6.7 5.4 67 2.7 NNW 19 26 10 14 1020.4 1020.4 0.0
20/01:00pm 11.5 6.8 5.2 65 2.9 NW 19 26 10 14 1020.8 1020.8 0.0
20/12:30pm 11.5 7.0 6.0 69 2.6 NNW 19 24 10 13 1021.4 1021.4 0.0
20/12:00pm 10.3 6.5 5.7 73 2.1 NNW 15 20 8 11 1021.9 1021.9 0.0
20/11:30am 9.7 5.8 7.0 83 1.3 NNW 17 22 9 12 1022.5 1022.5 0.0
20/11:00am 11.2 7.4 7.7 79 1.7 N 17 22 9 12 1022.9 1022.9 0.0
20/10:30am 10.0 6.5 7.1 82 1.4 N 15 19 8 10 1023.1 1023.1 0.0
20/10:00am 7.9 4.5 6.0 88 0.9 NNE 13 17 7 9 1023.4 1023.4 0.0
20/09:30am 6.8 3.0 5.6 92 0.5 NNE 15 20 8 11 1023.6 1023.6 0.0
20/09:00am 6.2 2.7 5.5 95 0.3 NNE 13 15 7 8 1023.6 1023.6 4.8
20/08:53am 5.5 1.8 4.6 94 0.4 NNE 13 17 7 9 1023.6 1023.6 4.8
20/08:30am 5.1 1.4 4.2 94 0.4 N 13 19 7 10 1023.8 1023.8 4.6
20/08:26am 5.1 1.4 4.2 94 0.4 N 13 19 7 10 1023.8 1023.8 4.4
20/08:00am 4.5 0.3 3.6 94 0.4 NNE 15 19 8 10 1023.5 1023.5 4.0
20/07:30am 4.2 -0.1 3.2 93 0.4 NNE 15 19 8 10 1023.6 1023.6 4.0
20/07:18am 4.1 0.1 3.1 93 0.4 NNE 13 17 7 9 1023.5 1023.5 4.0
20/07:00am 4.3 1.1 3.3 93 0.4 NNE 9 13 5 7 1023.5 1023.5 3.8
20/06:51am 4.3 1.1 3.3 93 0.4 N 9 15 5 8 1023.5 1023.5 3.4
20/06:30am 4.0 -0.3 3.0 93 0.4 NNE 15 19 8 10 1023.3 1023.3 3.0
20/06:08am 4.0 0.4 2.8 92 0.5 NNE 11 15 6 8 1023.4 1023.4 3.0
20/06:00am 4.0 0.4 2.8 92 0.5 NE 11 15 6 8 1023.4 1023.4 3.0
20/05:51am 4.1 0.9 2.9 92 0.5 ENE 9 15 5 8 1023.3 1023.3 3.0
20/05:30am 3.8 -0.3 2.5 91 0.5 NNE 13 19 7 10 1023.4 1023.4 2.6
20/05:00am 4.2 0.2 2.9 91 0.5 NNE 13 20 7 11 1023.4 1023.4 2.6
20/04:30am 3.8 -1.1 2.2 89 0.6 NNE 17 22 9 12 1023.6 1023.6 2.6
20/04:00am 4.0 -0.4 2.5 90 0.6 NNE 15 19 8 10 1023.7 1023.7 2.6
20/03:30am 3.7 -0.8 2.4 91 0.5 NNE 15 19 8 10 1023.9 1023.9 2.6
20/03:00am 3.6 -0.5 2.3 91 0.5 NNE 13 17 7 9 1023.9 1023.9 2.6
20/02:30am 3.6 -0.1 2.3 91 0.5 NE 11 13 6 7 1024.1 1024.1 2.6
20/02:00am 3.7 0.4 2.2 90 0.6 NNE 9 13 5 7 1024.6 1024.6 2.6
20/01:30am 3.1 -0.3 1.8 91 0.5 NE 9 11 5 6 1024.7 1024.7 2.6
20/01:00am 2.9 -0.6 1.4 90 0.6 ENE 9 11 5 6 1024.9 1024.9 2.6
20/12:30am 3.4 -0.3 2.1 91 0.5 NE 11 15 6 8 1025.0 1025.0 2.6
20/12:00am 2.9 -0.6 1.4 90 0.6 ENE 9 11 5 6 1025.2 1025.2 2.6
 
Date/Time
EST
Temp
°C
App
Temp
°C
Dew
Point
°C
Rel
Hum
%
Delta-T
°C
Wind Press
QNH
hPa
Press
MSL
hPa
Rain since
9am
mm
Dir  Spd
km/h
Gust
km/h
Spd
kts
Gust
kts
19/11:30pm 3.6 1.6 2.1 90 0.6 NNE 2 11 1 6 1025.1 1025.1 2.6
19/11:00pm 3.5 0.1 1.7 88 0.7 ENE 9 13 5 7 1025.1 1025.1 2.6
19/10:30pm 4.1 0.0 2.1 87 0.8 NNE 13 17 7 9 1025.2 1025.2 2.6
19/10:00pm 3.8 -0.3 2.2 89 0.6 NNE 13 15 7 8 1025.1 1025.1 2.6
19/09:30pm 3.7 0.0 2.1 89 0.6 NNE 11 15 6 8 1025.1 1025.1 2.6
19/09:00pm 4.0 -0.1 2.4 89 0.6 NNE 13 15 7 8 1025.0 1025.0 2.6

Other Formats:

Comma delimited format used in spreadsheet applications
http://www.bom.gov.au/fwo/IDT60801/IDT60801.94956.axf

JavaScript Object Notation format (JSON) in row-major order
http://www.bom.gov.au/fwo/IDT60801/IDT60801.94956.json